Time;durP1;ratioP1;P1;durP2;ratioP2;P2;SDS_P1;SDS_P2;PMS_P1;PMS_P2;Temp;Humidity;BMP_temperature;BMP_pressure;BME280_temperature;BME280_humidity;BME280_pressure;Samples;Min_cycle;Max_cycle;Signal;HPM_P1;HPM_P2
2023/07/01 03:17:19;;;;;;;2.85;1.05;;;17.70;99.90;;;;;;6104043;22;88699;-70
2023/07/01 03:19:45;;;;;;;7.65;1.27;;;17.70;99.90;;;;;;6128238;23;87159;-72
2023/07/01 03:22:12;;;;;;;3.97;1.30;;;17.70;99.90;;;;;;6128395;23;87358;-73
2023/07/01 03:24:37;;;;;;;3.00;1.30;;;17.70;99.90;;;;;;6128228;23;87778;-71
2023/07/01 03:27:04;;;;;;;5.15;1.25;;;17.70;99.90;;;;;;6128675;23;87128;-71
2023/07/01 03:29:30;;;;;;;3.67;0.90;;;17.70;99.90;;;;;;6128481;23;87564;-71
2023/07/01 03:31:55;;;;;;;2.58;0.95;;;17.70;99.90;;;;;;6127951;23;87421;-71
2023/07/01 03:34:22;;;;;;;3.03;0.82;;;17.80;99.90;;;;;;6125741;23;89136;-71
2023/07/01 03:36:48;;;;;;;2.70;0.80;;;17.80;99.90;;;;;;6127493;23;89600;-73
2023/07/01 03:39:16;;;;;;;4.28;1.00;;;17.80;99.90;;;;;;6126984;23;86964;-70
2023/07/01 03:41:41;;;;;;;4.63;1.00;;;17.80;99.90;;;;;;6127506;23;87722;-71
2023/07/01 03:44:07;;;;;;;3.78;1.20;;;17.80;99.90;;;;;;6127088;23;87685;-70
2023/07/01 03:46:33;;;;;;;2.50;1.08;;;17.80;99.90;;;;;;6126841;23;87993;-71
2023/07/01 03:48:59;;;;;;;3.17;1.48;;;17.80;99.90;;;;;;6126668;23;87406;-71
2023/07/01 03:51:25;;;;;;;4.22;1.50;;;17.70;99.90;;;;;;6127699;23;86889;-70
2023/07/01 03:53:51;;;;;;;3.08;1.27;;;17.70;99.90;;;;;;6127518;23;87580;-70
2023/07/01 03:56:17;;;;;;;5.47;1.75;;;17.70;99.90;;;;;;6126617;23;87861;-71
2023/07/01 03:58:43;;;;;;;4.10;1.70;;;17.70;99.90;;;;;;6126902;23;88387;-71
2023/07/01 04:01:08;;;;;;;6.20;1.58;;;17.60;99.90;;;;;;6127018;23;87393;-70
2023/07/01 04:03:34;;;;;;;5.60;1.63;;;17.60;99.90;;;;;;6127136;23;88391;-70
2023/07/01 04:06:00;;;;;;;6.60;1.88;;;17.70;99.90;;;;;;6127301;23;87975;-72
2023/07/01 04:08:26;;;;;;;4.82;1.58;;;17.70;99.90;;;;;;6127634;23;87488;-71
2023/07/01 04:10:51;;;;;;;3.65;1.50;;;17.70;99.90;;;;;;6127436;23;87251;-71
2023/07/01 04:13:17;;;;;;;3.75;1.50;;;17.70;99.90;;;;;;6127205;23;88072;-71
2023/07/01 04:15:43;;;;;;;5.10;1.58;;;17.70;99.90;;;;;;6127434;23;87722;-71
2023/07/01 04:18:09;;;;;;;7.22;1.75;;;17.70;99.90;;;;;;6100629;23;87590;-70
2023/07/01 04:20:35;;;;;;;5.50;1.55;;;17.60;99.90;;;;;;6097919;23;87621;-71
2023/07/01 04:23:00;;;;;;;5.00;1.70;;;17.60;99.90;;;;;;6096338;23;88353;-70
2023/07/01 04:25:26;;;;;;;3.50;1.42;;;17.60;99.90;;;;;;6096849;23;89086;-71
2023/07/01 04:27:52;;;;;;;4.93;1.73;;;17.60;99.90;;;;;;6072452;23;88209;-71
2023/07/01 04:30:18;;;;;;;4.18;1.67;;;17.70;99.90;;;;;;6097715;23;87337;-73
2023/07/01 04:32:43;;;;;;;4.72;1.60;;;17.70;99.90;;;;;;6097271;23;87975;-72
2023/07/01 04:35:09;;;;;;;4.30;1.50;;;17.70;99.90;;;;;;6095836;23;88381;-70
2023/07/01 04:37:35;;;;;;;4.47;1.40;;;17.70;99.90;;;;;;6067273;23;87260;-71
2023/07/01 04:40:01;;;;;;;3.03;1.13;;;17.70;99.90;;;;;;6067492;23;86567;-71
2023/07/01 04:42:26;;;;;;;4.07;1.20;;;17.70;99.90;;;;;;6096279;23;88350;-73
2023/07/01 04:44:55;;;;;;;5.25;0.90;;;17.70;99.90;;;;;;6097289;23;87917;-72
2023/07/01 04:47:22;;;;;;;3.63;0.80;;;17.80;99.90;;;;;;6095563;23;88540;-71
2023/07/01 04:49:47;;;;;;;6.57;0.98;;;17.90;99.90;;;;;;6096175;23;87276;-72
2023/07/01 04:52:16;;;;;;;4.75;0.80;;;17.90;99.90;;;;;;6095588;23;88344;-73
2023/07/01 04:54:42;;;;;;;3.15;0.60;;;17.90;99.70;;;;;;6096901;23;87785;-71
2023/07/01 04:57:07;;;;;;;2.53;0.90;;;18.00;99.80;;;;;;6096021;23;87429;-71
2023/07/01 04:59:33;;;;;;;4.38;1.45;;;18.00;99.70;;;;;;6096901;23;87496;-71
2023/07/01 05:01:59;;;;;;;4.10;1.02;;;18.00;99.90;;;;;;6095735;23;88360;-70
2023/07/01 05:04:24;;;;;;;3.08;1.08;;;18.00;99.70;;;;;;6096699;23;88028;-73
2023/07/01 05:06:51;;;;;;;2.28;0.90;;;18.00;99.10;;;;;;6097047;23;87423;-71
2023/07/01 05:09:16;;;;;;;2.83;0.95;;;18.00;98.90;;;;;;6096623;23;87687;-72
2023/07/01 05:11:42;;;;;;;4.53;1.08;;;18.00;97.50;;;;;;6095296;23;88828;-72
2023/07/01 05:14:08;;;;;;;3.78;0.68;;;18.10;98.60;;;;;;6097024;23;87534;-70
2023/07/01 05:16:33;;;;;;;6.05;0.77;;;18.10;97.00;;;;;;6096164;23;87376;-74
2023/07/01 05:18:59;;;;;;;3.80;0.60;;;18.10;96.30;;;;;;6095747;23;87544;-74
2023/07/01 05:21:25;;;;;;;4.47;0.88;;;18.10;95.70;;;;;;6097090;23;88059;-70
2023/07/01 05:23:50;;;;;;;4.07;0.80;;;18.20;95.60;;;;;;6096951;23;87991;-70
2023/07/01 05:26:16;;;;;;;3.90;0.70;;;18.20;95.20;;;;;;6097275;23;87478;-70
2023/07/01 05:28:42;;;;;;;3.65;0.60;;;18.20;94.90;;;;;;6096538;23;86316;-70
2023/07/01 05:31:08;;;;;;;2.95;0.47;;;18.20;94.90;;;;;;6095032;23;89037;-70
2023/07/01 05:33:33;;;;;;;5.50;0.80;;;18.30;94.70;;;;;;6096325;23;87382;-69
2023/07/01 05:35:59;;;;;;;2.10;0.52;;;18.30;94.70;;;;;;6095117;23;88241;-71
2023/07/01 05:38:25;;;;;;;3.95;0.63;;;18.30;94.10;;;;;;6097092;23;86978;-73
2023/07/01 05:40:50;;;;;;;2.95;0.75;;;18.30;94.70;;;;;;6095341;23;88112;-71
2023/07/01 05:43:16;;;;;;;2.67;0.50;;;18.30;94.30;;;;;;6096466;23;87868;-71
2023/07/01 05:45:42;;;;;;;4.78;0.60;;;18.30;94.20;;;;;;6096456;23;87632;-71
2023/07/01 05:48:07;;;;;;;3.15;0.60;;;18.40;93.80;;;;;;6097772;23;87202;-72
2023/07/01 05:50:33;;;;;;;2.00;0.47;;;18.40;93.10;;;;;;6098028;23;88261;-71
2023/07/01 05:52:59;;;;;;;4.10;0.50;;;18.40;93.50;;;;;;6097660;23;87686;-71
2023/07/01 05:55:25;;;;;;;2.65;0.70;;;18.40;93.80;;;;;;6096916;23;87276;-71
2023/07/01 05:57:50;;;;;;;2.42;0.73;;;18.50;93.00;;;;;;6097025;23;87348;-69
2023/07/01 06:00:16;;;;;;;3.35;0.82;;;18.50;93.40;;;;;;6070802;23;91028;-71
2023/07/01 06:02:42;;;;;;;4.20;0.50;;;18.60;92.30;;;;;;6097176;23;88909;-72
2023/07/01 06:05:09;;;;;;;2.63;0.57;;;18.60;92.60;;;;;;6098673;23;87204;-71
2023/07/01 06:07:34;;;;;;;5.10;0.63;;;18.60;92.80;;;;;;6096797;23;87437;-72
2023/07/01 06:10:00;;;;;;;1.77;0.50;;;18.60;93.10;;;;;;6098118;23;89117;-70
2023/07/01 06:12:26;;;;;;;3.97;0.32;;;18.60;92.80;;;;;;6097901;23;87595;-70
2023/07/01 06:14:52;;;;;;;2.55;0.43;;;18.70;92.50;;;;;;6097314;23;87417;-70
2023/07/01 06:17:18;;;;;;;3.03;0.63;;;18.80;91.90;;;;;;6097664;23;86501;-71
2023/07/01 06:19:43;;;;;;;2.90;0.85;;;18.80;92.00;;;;;;6071442;23;89794;-70
2023/07/01 06:22:09;;;;;;;1.83;0.40;;;18.80;90.80;;;;;;6097123;23;87578;-71
2023/07/01 06:24:34;;;;;;;3.30;0.43;;;18.70;90.80;;;;;;6096773;23;88183;-71
2023/07/01 06:27:00;;;;;;;1.73;0.52;;;18.70;91.40;;;;;;6095371;23;87798;-70
2023/07/01 06:29:27;;;;;;;1.70;0.38;;;18.70;90.90;;;;;;6096006;23;88611;-72
2023/07/01 06:31:52;;;;;;;2.03;0.60;;;18.80;91.60;;;;;;6096779;23;87415;-70
2023/07/01 06:34:18;;;;;;;2.67;0.52;;;18.70;90.90;;;;;;6093672;23;87232;-73
2023/07/01 06:36:44;;;;;;;1.60;0.47;;;18.70;91.00;;;;;;6094009;23;87871;-70
2023/07/01 06:39:11;;;;;;;2.88;0.40;;;18.80;90.40;;;;;;6097886;23;88747;-70
2023/07/01 06:41:37;;;;;;;2.47;0.57;;;18.90;90.40;;;;;;6098213;23;88302;-72
2023/07/01 06:44:03;;;;;;;2.15;0.73;;;18.90;90.80;;;;;;6097885;23;87203;-71
2023/07/01 06:46:29;;;;;;;2.50;0.50;;;19.00;90.50;;;;;;6098153;23;87622;-71
2023/07/01 06:48:55;;;;;;;2.20;0.50;;;19.00;90.60;;;;;;6096821;23;89041;-72
2023/07/01 06:51:21;;;;;;;3.58;0.55;;;19.00;89.10;;;;;;6097195;23;89289;-70
2023/07/01 06:53:46;;;;;;;3.78;1.17;;;19.10;89.00;;;;;;6098034;23;87627;-72
2023/07/01 06:56:12;;;;;;;3.63;0.60;;;19.20;89.30;;;;;;6098133;23;87423;-71
2023/07/01 06:58:40;;;;;;;1.73;0.40;;;19.30;90.10;;;;;;6097204;23;88249;-71
2023/07/01 07:01:06;;;;;;;1.50;0.52;;;19.50;89.80;;;;;;6097727;23;87224;-71
2023/07/01 07:03:33;;;;;;;4.13;0.52;;;19.60;89.50;;;;;;6097406;23;87275;-70
2023/07/01 07:05:59;;;;;;;2.80;0.63;;;19.70;89.40;;;;;;6072538;23;86663;-72
2023/07/01 07:08:25;;;;;;;2.30;0.60;;;19.90;86.90;;;;;;6097998;23;87859;-72
2023/07/01 07:10:51;;;;;;;2.55;0.50;;;20.10;87.00;;;;;;6097639;23;87546;-70
2023/07/01 07:13:19;;;;;;;1.50;0.40;;;20.40;85.70;;;;;;6097614;23;88714;-71
2023/07/01 07:15:45;;;;;;;2.33;0.47;;;20.50;84.10;;;;;;6097688;23;88974;-72
2023/07/01 07:18:11;;;;;;;2.55;0.73;;;20.80;83.20;;;;;;6097558;23;88124;-71
2023/07/01 07:20:38;;;;;;;1.48;0.43;;;21.00;83.00;;;;;;6097627;23;87704;-72
2023/07/01 07:23:06;;;;;;;1.40;0.50;;;21.30;80.90;;;;;;6097355;23;87227;-70
2023/07/01 07:25:35;;;;;;;2.83;0.52;;;21.70;80.10;;;;;;6098485;23;87788;-71
2023/07/01 07:28:04;;;;;;;4.68;0.55;;;22.00;78.30;;;;;;6097747;23;88126;-70
2023/07/01 07:30:30;;;;;;;2.28;0.47;;;22.10;77.20;;;;;;6097780;23;87337;-71
2023/07/01 07:32:55;;;;;;;1.40;0.40;;;22.30;77.00;;;;;;6097861;23;87343;-71
2023/07/01 07:35:21;;;;;;;4.95;0.63;;;22.60;76.70;;;;;;6097643;23;87799;-71
2023/07/01 07:37:47;;;;;;;2.65;0.52;;;22.90;76.30;;;;;;6096983;23;88495;-73
2023/07/01 07:40:13;;;;;;;2.63;0.60;;;23.10;75.00;;;;;;6097256;23;88278;-72
2023/07/01 07:42:40;;;;;;;2.30;0.73;;;23.30;74.00;;;;;;6098247;23;87245;-71
2023/07/01 07:45:06;;;;;;;3.55;0.55;;;23.50;72.70;;;;;;6097183;23;87516;-71
2023/07/01 07:47:32;;;;;;;4.53;0.57;;;23.60;73.40;;;;;;6096630;23;88590;-70
2023/07/01 07:49:59;;;;;;;2.58;0.70;;;23.80;73.00;;;;;;6097115;23;87288;-71
2023/07/01 07:52:24;;;;;;;3.92;0.68;;;23.80;71.30;;;;;;6097287;23;87841;-71
2023/07/01 07:54:50;;;;;;;2.35;0.47;;;23.80;71.70;;;;;;6098062;23;86736;-70
2023/07/01 07:57:16;;;;;;;4.45;0.70;;;23.80;70.70;;;;;;6097638;23;87922;-72
2023/07/01 07:59:41;;;;;;;2.25;0.82;;;23.90;70.70;;;;;;6096624;23;87445;-72
2023/07/01 08:02:08;;;;;;;3.72;0.70;;;24.00;70.80;;;;;;6097353;23;88243;-71
2023/07/01 08:04:37;;;;;;;4.57;0.77;;;24.10;70.70;;;;;;6098264;23;87509;-72
2023/07/01 08:07:03;;;;;;;2.08;0.82;;;24.20;69.90;;;;;;6097770;23;88181;-70
2023/07/01 08:09:29;;;;;;;3.40;0.82;;;24.40;69.60;;;;;;6097467;23;88015;-73
2023/07/01 08:12:04;;;;;;;2.83;0.90;;;24.40;67.30;;;;;;6097083;23;87435;-70
2023/07/01 08:14:30;;;;;;;3.47;0.60;;;24.50;67.30;;;;;;6097999;23;87371;-71
2023/07/01 08:16:58;;;;;;;2.00;0.65;;;24.60;67.50;;;;;;6096800;23;88529;-70
2023/07/01 08:19:24;;;;;;;3.88;0.75;;;24.90;67.80;;;;;;6097974;23;87201;-71
2023/07/01 08:21:49;;;;;;;5.63;0.77;;;25.10;66.60;;;;;;6097196;23;87350;-71
2023/07/01 08:24:15;;;;;;;1.92;1.02;;;25.30;66.90;;;;;;6097811;23;86944;-70
2023/07/01 08:26:41;;;;;;;4.40;0.90;;;25.50;65.80;;;;;;6096774;23;89079;-72
2023/07/01 08:29:09;;;;;;;4.40;0.70;;;25.90;65.80;;;;;;6096422;23;88616;-71
2023/07/01 08:31:34;;;;;;;2.38;0.70;;;26.10;63.20;;;;;;6096153;23;87259;-74
2023/07/01 08:34:01;;;;;;;1.80;0.73;;;26.30;62.50;;;;;;6096658;23;87363;-72
2023/07/01 08:36:27;;;;;;;2.03;0.82;;;26.40;62.40;;;;;;6096427;23;87638;-73
2023/07/01 08:38:53;;;;;;;2.08;0.88;;;26.50;62.30;;;;;;6095716;23;87378;-72
2023/07/01 08:41:21;;;;;;;2.35;0.82;;;26.70;61.50;;;;;;6096303;23;87225;-71
2023/07/01 08:43:50;;;;;;;2.95;0.82;;;26.60;60.60;;;;;;6096941;23;86526;-70
2023/07/01 08:46:18;;;;;;;;;;;26.50;60.80;;;;;;6095351;23;87907;-70
2023/07/01 08:48:47;;;;;;;2.67;1.00;;;26.60;62.00;;;;;;6097734;23;87237;-72
2023/07/01 08:51:31;;;;;;;2.97;1.00;;;26.70;61.60;;;;;;6095876;23;88312;-72
2023/07/01 08:54:00;;;;;;;3.97;1.10;;;26.60;61.00;;;;;;6097486;23;87507;-72
2023/07/01 08:56:26;;;;;;;3.63;1.02;;;26.50;62.50;;;;;;6096705;23;88407;-71
2023/07/01 08:58:52;;;;;;;2.00;0.80;;;26.70;61.80;;;;;;6095913;23;88276;-72
2023/07/01 09:01:18;;;;;;;3.38;1.05;;;26.80;61.00;;;;;;6096537;23;87636;-74
2023/07/01 09:03:46;;;;;;;2.63;0.82;;;27.00;60.80;;;;;;6097235;23;87441;-72
2023/07/01 09:06:12;;;;;;;2.58;1.13;;;27.00;59.30;;;;;;6095885;23;87644;-72
2023/07/01 09:08:38;;;;;;;5.53;1.10;;;27.10;60.90;;;;;;6095457;23;87109;-72
2023/07/01 09:11:14;;;;;;;1.75;1.23;;;27.40;59.70;;;;;;6095406;23;87027;-73
2023/07/01 09:13:41;;;;;;;3.85;1.10;;;27.30;58.50;;;;;;6096872;23;86870;-70
2023/07/01 09:16:07;;;;;;;3.80;1.05;;;27.40;58.80;;;;;;6095485;23;88967;-70
2023/07/01 09:18:33;;;;;;;2.80;0.88;;;27.40;59.90;;;;;;6096357;23;88878;-70
2023/07/01 09:20:59;;;;;;;3.38;1.52;;;27.40;58.40;;;;;;6096080;23;87453;-71
2023/07/01 09:23:35;;;;;;;3.33;1.15;;;27.30;59.80;;;;;;6097001;23;87563;-72
2023/07/01 09:26:15;;;;;;;3.60;1.23;;;27.30;59.50;;;;;;6096465;23;87973;-72
2023/07/01 09:28:43;;;;;;;2.83;1.10;;;27.30;60.10;;;;;;6096280;23;87304;-71
2023/07/01 09:31:11;;;;;;;2.22;0.95;;;27.50;58.80;;;;;;6069747;23;87301;-71
2023/07/01 09:33:37;;;;;;;2.33;1.30;;;27.60;59.00;;;;;;6097189;23;86715;-71
2023/07/01 09:36:04;;;;;;;3.40;1.13;;;27.40;58.60;;;;;;6097006;23;87917;-70
2023/07/01 09:38:32;;;;;;;3.65;1.00;;;27.20;58.80;;;;;;6096668;23;88211;-70
2023/07/01 09:41:14;;;;;;;2.20;1.15;;;27.10;59.50;;;;;;6096682;23;88287;-70
2023/07/01 09:43:40;;;;;;;2.95;1.02;;;26.90;60.90;;;;;;6097610;23;87319;-71
2023/07/01 09:46:06;;;;;;;2.70;1.80;;;27.00;60.40;;;;;;6095685;23;88115;-72
2023/07/01 09:48:33;;;;;;;6.47;1.38;;;27.10;59.20;;;;;;6096900;23;88426;-71
2023/07/01 09:51:05;;;;;;;2.33;1.08;;;27.50;58.60;;;;;;6096982;23;87444;-72
2023/07/01 09:53:35;;;;;;;3.25;1.15;;;27.70;58.10;;;;;;6096837;23;86891;-73
2023/07/01 09:56:03;;;;;;;4.07;1.42;;;28.00;57.10;;;;;;6096771;23;89117;-71
2023/07/01 09:58:31;;;;;;;6.30;1.23;;;28.10;58.10;;;;;;6097023;23;88187;-70
2023/07/01 10:00:57;;;;;;;8.05;1.20;;;28.50;57.20;;;;;;6096594;23;87073;-70
2023/07/01 10:03:25;;;;;;;2.75;1.33;;;29.10;55.80;;;;;;6097163;23;87699;-71
2023/07/01 10:05:52;;;;;;;5.97;1.40;;;29.40;55.90;;;;;;6096450;23;89038;-70
2023/07/01 10:08:18;;;;;;;3.38;1.40;;;29.70;53.10;;;;;;6096838;23;87808;-71
2023/07/01 10:10:44;;;;;;;2.40;1.17;;;29.90;51.60;;;;;;6095668;23;87683;-71
2023/07/01 10:13:11;;;;;;;2.53;1.55;;;30.90;53.30;;;;;;6097509;23;87026;-71
2023/07/01 10:15:39;;;;;;;3.50;1.05;;;31.80;53.20;;;;;;6096667;23;87984;-70
2023/07/01 10:18:22;;;;;;;6.18;2.53;;;31.50;51.50;;;;;;6096042;23;88181;-70
2023/07/01 10:20:48;;;;;;;3.17;1.45;;;31.30;52.60;;;;;;6093739;23;87432;-71
2023/07/01 10:23:14;;;;;;;3.95;1.40;;;30.80;51.40;;;;;;6096971;23;86706;-71
2023/07/01 10:25:41;;;;;;;2.67;1.50;;;30.10;50.40;;;;;;6094978;23;87593;-71
2023/07/01 10:28:13;;;;;;;2.75;1.50;;;29.20;50.70;;;;;;6096130;23;87260;-70
2023/07/01 10:30:42;;;;;;;2.83;1.73;;;28.80;51.50;;;;;;6095315;23;87788;-70
2023/07/01 10:33:26;;;;;;;6.30;1.38;;;28.40;52.50;;;;;;6097273;23;87681;-69
2023/07/01 10:36:12;;;;;;;4.38;1.35;;;28.20;53.30;;;;;;6097017;23;88122;-70
2023/07/01 10:38:38;;;;;;;4.18;1.52;;;28.10;54.10;;;;;;6096952;23;88473;-71
2023/07/01 10:41:06;;;;;;;2.60;1.17;;;27.90;54.30;;;;;;6097368;23;87502;-71
2023/07/01 10:43:38;;;;;;;4.70;1.38;;;27.70;54.60;;;;;;6097958;23;87228;-70
2023/07/01 10:46:19;;;;;;;3.25;1.35;;;27.50;56.20;;;;;;6096230;23;88099;-71
2023/07/01 10:49:06;;;;;;;2.90;1.38;;;27.40;55.20;;;;;;6096895;23;87673;-72
2023/07/01 10:51:44;;;;;;;4.00;1.10;;;27.40;54.10;;;;;;6097088;23;87448;-71
2023/07/01 10:54:10;;;;;;;2.83;1.23;;;27.50;54.30;;;;;;6097460;23;87680;-70
2023/07/01 10:56:38;;;;;;;5.93;1.48;;;27.50;55.90;;;;;;6096335;23;88868;-74
2023/07/01 10:59:27;;;;;;;4.35;1.30;;;27.70;54.40;;;;;;6096576;23;88814;-70
2023/07/01 11:01:59;;;;;;;4.53;1.60;;;27.20;55.30;;;;;;6097198;23;87575;-71
2023/07/01 11:04:54;;;;;;;2.10;1.20;;;27.10;54.80;;;;;;6097536;23;87569;-69
2023/07/01 11:07:27;;;;;;;5.70;1.10;;;27.00;56.40;;;;;;6096246;23;87415;-69
2023/07/01 11:09:56;;;;;;;2.50;1.40;;;26.80;56.00;;;;;;6096769;23;88936;-71
2023/07/01 11:12:27;;;;;;;5.10;1.25;;;26.80;55.70;;;;;;6096355;23;87689;-71
2023/07/01 11:14:54;;;;;;;4.38;1.48;;;26.80;57.30;;;;;;6098492;23;86521;-70
2023/07/01 11:17:21;;;;;;;2.20;1.45;;;26.80;56.00;;;;;;6096079;23;87543;-70
2023/07/01 11:19:56;;;;;;;2.78;1.45;;;26.80;56.00;;;;;;6096730;23;87889;-70
2023/07/01 11:22:22;;;;;;;3.38;1.83;;;26.60;58.00;;;;;;6096548;23;88651;-71
2023/07/01 11:24:48;;;;;;;3.10;1.33;;;26.30;57.50;;;;;;6097788;23;87131;-70
2023/07/01 11:27:17;;;;;;;3.03;1.40;;;26.20;57.60;;;;;;6097093;23;88059;-72
2023/07/01 11:29:45;;;;;;;12.07;1.60;;;26.20;57.30;;;;;;6097141;23;88284;-70
2023/07/01 11:32:14;;;;;;;4.35;1.23;;;26.00;56.80;;;;;;6071400;23;87566;-70
2023/07/01 11:34:42;;;;;;;3.35;1.70;;;26.20;59.70;;;;;;6097019;23;87318;-70
2023/07/01 11:37:08;;;;;;;2.90;1.40;;;26.50;57.20;;;;;;6069995;23;91322;-70
2023/07/01 11:39:43;;;;;;;4.50;1.35;;;26.50;56.60;;;;;;6096892;23;88217;-71
2023/07/01 11:42:09;;;;;;;2.20;0.98;;;26.20;56.10;;;;;;6096054;23;86888;-70
2023/07/01 11:44:34;;;;;;;2.80;1.00;;;26.10;57.70;;;;;;6096200;23;87355;-70
2023/07/01 11:47:00;;;;;;;3.60;1.27;;;26.20;57.70;;;;;;6091693;23;89730;-71
2023/07/01 11:49:31;;;;;;;3.78;1.40;;;26.60;56.50;;;;;;6091486;23;88629;-71
2023/07/01 11:52:01;;;;;;;3.03;1.40;;;26.90;56.80;;;;;;6091659;23;87446;-71
2023/07/01 11:54:39;;;;;;;3.10;1.80;;;26.90;55.90;;;;;;6091893;23;87655;-72
2023/07/01 11:57:15;;;;;;;2.60;1.23;;;26.80;57.10;;;;;;6090735;23;87298;-70
2023/07/01 12:00:03;;;;;;;3.58;1.27;;;26.60;58.20;;;;;;6091746;23;88426;-71
2023/07/01 12:02:31;;;;;;;5.43;1.63;;;26.30;60.30;;;;;;6092476;23;87609;-70
2023/07/01 12:04:57;;;;;;;3.17;1.23;;;26.20;59.50;;;;;;6095192;23;86489;-74
2023/07/01 12:07:23;;;;;;;2.53;1.00;;;26.20;59.20;;;;;;6094229;23;87359;-71
2023/07/01 12:09:49;;;;;;;2.92;1.67;;;26.40;60.70;;;;;;6093516;23;88354;-70
2023/07/01 12:12:33;;;;;;;2.75;1.23;;;26.70;58.50;;;;;;6093466;23;88086;-70
2023/07/01 12:15:09;;;;;;;6.28;1.23;;;26.80;57.60;;;;;;6094245;23;86970;-70
2023/07/01 12:17:36;;;;;;;3.35;1.30;;;26.80;59.00;;;;;;6092926;23;88863;-69
2023/07/01 12:20:06;;;;;;;3.25;1.23;;;26.70;56.60;;;;;;6094265;23;87569;-69
2023/07/01 12:22:32;;;;;;;3.22;1.40;;;26.30;58.30;;;;;;6094077;23;87373;-69
2023/07/01 12:24:58;;;;;;;4.13;1.27;;;26.20;57.10;;;;;;6094767;23;87280;-71
2023/07/01 12:27:24;;;;;;;2.97;1.63;;;26.00;59.10;;;;;;6094154;23;88042;-71
2023/07/01 12:29:51;;;;;;;5.65;1.20;;;26.40;58.60;;;;;;6094308;23;88157;-70
2023/07/01 12:32:17;;;;;;;1.92;0.93;;;26.90;56.70;;;;;;6093523;23;87520;-70
2023/07/01 12:34:43;;;;;;;1.92;0.93;;;26.80;56.00;;;;;;6094359;23;87937;-71
2023/07/01 12:37:09;;;;;;;2.20;1.15;;;26.70;57.40;;;;;;6092633;23;89010;-69
2023/07/01 12:39:36;;;;;;;2.38;1.08;;;26.60;57.10;;;;;;6092860;23;88097;-71
2023/07/01 12:42:02;;;;;;;3.05;1.13;;;26.50;57.60;;;;;;6094641;23;87673;-70
2023/07/01 12:44:28;;;;;;;2.42;1.30;;;26.50;58.00;;;;;;6093750;23;87064;-70
2023/07/01 12:46:53;;;;;;;3.28;0.95;;;26.60;57.60;;;;;;6093722;23;87642;-70
2023/07/01 12:49:19;;;;;;;3.00;1.30;;;26.60;57.40;;;;;;6094013;23;87946;-69
2023/07/01 12:51:46;;;;;;;3.28;1.23;;;26.50;56.70;;;;;;6093335;23;87224;-71
2023/07/01 12:54:12;;;;;;;3.42;1.25;;;26.50;55.70;;;;;;6094356;23;86706;-71
2023/07/01 12:56:39;;;;;;;7.38;1.35;;;26.70;56.50;;;;;;6092341;23;87512;-70
2023/07/01 12:59:04;;;;;;;3.00;1.23;;;26.80;59.20;;;;;;6094114;23;87297;-70
2023/07/01 13:01:30;;;;;;;3.83;1.15;;;27.30;57.70;;;;;;6090800;23;87941;-71
2023/07/01 13:03:56;;;;;;;2.78;1.13;;;27.90;58.80;;;;;;6093848;23;87573;-70
2023/07/01 13:06:25;;;;;;;5.57;1.42;;;28.40;58.10;;;;;;6094184;23;88177;-70
2023/07/01 13:08:51;;;;;;;2.28;1.23;;;28.30;53.90;;;;;;6093796;23;87671;-72
2023/07/01 13:11:18;;;;;;;4.53;1.30;;;28.00;54.60;;;;;;6094762;23;87086;-70
2023/07/01 13:13:44;;;;;;;2.55;1.38;;;28.20;54.40;;;;;;6094366;23;87383;-70
2023/07/01 13:16:34;;;;;;;2.67;1.15;;;28.00;52.80;;;;;;6092923;23;88949;-69
2023/07/01 13:19:07;;;;;;;3.88;1.05;;;28.10;55.30;;;;;;6094095;23;88626;-70
2023/07/01 13:21:38;;;;;;;2.92;1.23;;;28.20;53.60;;;;;;6094090;23;87511;-72
2023/07/01 13:24:05;;;;;;;3.58;1.20;;;28.20;52.50;;;;;;6093834;23;86913;-71
2023/07/01 13:26:33;;;;;;;2.10;1.10;;;28.00;52.90;;;;;;6092840;23;88909;-71
2023/07/01 13:28:59;;;;;;;5.22;1.35;;;27.60;53.00;;;;;;6093458;23;89187;-72
2023/07/01 13:31:25;;;;;;;3.15;1.67;;;27.20;55.00;;;;;;6094272;23;87854;-72
2023/07/01 13:34:01;;;;;;;3.08;1.50;;;27.00;53.80;;;;;;6096957;23;87303;-70
2023/07/01 13:36:31;;;;;;;1.92;1.05;;;26.80;55.00;;;;;;6070150;23;88863;-73
2023/07/01 13:38:57;;;;;;;4.88;1.23;;;26.70;54.60;;;;;;6095678;23;87701;-71
2023/07/01 13:41:24;;;;;;;2.38;1.05;;;26.80;55.10;;;;;;6097507;23;87252;-70
2023/07/01 13:43:59;;;;;;;2.80;0.85;;;26.90;56.70;;;;;;6098017;23;86893;-70
2023/07/01 13:46:34;;;;;;;3.72;1.48;;;27.00;57.50;;;;;;6095094;23;88693;-70
2023/07/01 13:49:00;;;;;;;2.55;1.00;;;27.20;56.70;;;;;;6096421;23;88108;-70
2023/07/01 13:51:30;;;;;;;6.25;1.08;;;27.30;55.90;;;;;;6095611;23;88090;-71
2023/07/01 13:53:56;;;;;;;3.60;0.93;;;27.60;55.20;;;;;;6096208;23;87228;-70
2023/07/01 13:56:22;;;;;;;2.63;1.30;;;27.80;55.30;;;;;;6096647;23;88106;-70
2023/07/01 13:58:48;;;;;;;2.30;1.10;;;27.90;53.60;;;;;;6095410;23;87658;-72
2023/07/01 14:01:14;;;;;;;2.60;1.20;;;27.90;53.40;;;;;;6095754;23;87681;-70
2023/07/01 14:03:53;;;;;;;2.22;1.20;;;27.90;54.00;;;;;;6097228;23;87280;-70
2023/07/01 14:06:20;;;;;;;2.80;1.17;;;28.00;52.80;;;;;;6070805;23;89725;-70
2023/07/01 14:08:46;;;;;;;5.97;1.10;;;28.10;53.30;;;;;;6098389;23;87886;-71
2023/07/01 14:11:19;;;;;;;2.10;1.30;;;28.20;54.60;;;;;;6097893;23;87429;-71
2023/07/01 14:13:50;;;;;;;3.22;1.38;;;28.30;51.90;;;;;;6098154;23;88024;-71
2023/07/01 14:16:18;;;;;;;3.25;1.65;;;28.30;51.40;;;;;;6096504;23;88185;-70
2023/07/01 14:18:45;;;;;;;3.38;1.77;;;28.40;51.20;;;;;;6098045;23;88307;-73
2023/07/01 14:21:12;;;;;;;3.10;1.23;;;28.30;52.00;;;;;;6097627;23;87644;-70
2023/07/01 14:23:39;;;;;;;2.63;1.25;;;28.20;51.90;;;;;;6098168;23;87022;-71
2023/07/01 14:26:17;;;;;;;3.20;1.15;;;28.20;51.70;;;;;;6097595;23;88187;-70
2023/07/01 14:28:46;;;;;;;2.67;1.25;;;28.00;52.30;;;;;;6098079;23;87883;-71
2023/07/01 14:31:13;;;;;;;2.88;1.95;;;28.20;52.40;;;;;;6098401;23;87400;-70
2023/07/01 14:33:57;;;;;;;3.13;1.42;;;28.30;52.10;;;;;;6098429;23;86666;-70
2023/07/01 14:36:36;;;;;;;6.75;1.48;;;28.10;51.30;;;;;;6097921;23;87630;-71
2023/07/01 14:39:03;;;;;;;3.55;1.80;;;28.00;52.50;;;;;;6097725;23;88330;-70
2023/07/01 14:41:31;;;;;;;4.20;1.48;;;28.00;52.30;;;;;;6097565;23;88036;-71
2023/07/01 14:43:59;;;;;;;6.05;2.10;;;28.00;51.70;;;;;;6098658;23;86952;-74
2023/07/01 14:46:28;;;;;;;4.38;2.40;;;28.00;51.60;;;;;;6097206;23;88418;-71
2023/07/01 14:48:53;;;;;;;6.28;1.60;;;27.90;51.20;;;;;;6097652;23;86974;-70
2023/07/01 14:51:19;;;;;;;2.92;1.67;;;27.80;50.80;;;;;;6098296;23;87304;-72
2023/07/01 14:53:47;;;;;;;3.35;1.58;;;27.70;50.70;;;;;;6097271;23;87391;-71
2023/07/01 14:56:15;;;;;;;3.88;1.75;;;27.70;51.70;;;;;;6097367;23;88153;-70
2023/07/01 14:58:40;;;;;;;4.32;1.40;;;27.80;53.20;;;;;;6098686;23;87951;-70
2023/07/01 15:01:06;;;;;;;3.33;1.45;;;27.80;52.10;;;;;;6097172;23;88381;-69
2023/07/01 15:03:32;;;;;;;3.60;1.52;;;27.70;51.10;;;;;;6098701;23;87041;-70
2023/07/01 15:05:57;;;;;;;2.90;1.42;;;27.60;51.40;;;;;;6097461;23;88592;-73
2023/07/01 15:08:23;;;;;;;3.38;1.60;;;27.60;51.00;;;;;;6097343;23;88129;-70
2023/07/01 15:10:49;;;;;;;2.95;1.50;;;27.50;51.30;;;;;;6097538;23;87534;-71
2023/07/01 15:13:14;;;;;;;5.90;1.52;;;27.50;52.60;;;;;;6098741;23;87270;-70
2023/07/01 15:15:41;;;;;;;4.70;1.75;;;27.40;51.80;;;;;;6097190;23;87444;-70
2023/07/01 15:18:07;;;;;;;3.83;1.55;;;27.40;53.80;;;;;;6096938;23;88911;-70
2023/07/01 15:20:32;;;;;;;3.42;1.67;;;27.30;53.90;;;;;;6097516;23;86989;-70
2023/07/01 15:22:59;;;;;;;2.67;0.80;;;27.20;54.10;;;;;;6099328;23;86700;-72
2023/07/01 15:25:25;;;;;;;6.03;2.67;;;27.20;53.40;;;;;;6097288;23;88026;-70
2023/07/01 15:27:50;;;;;;;6.53;1.50;;;27.20;53.10;;;;;;6097414;23;87338;-70
2023/07/01 15:30:16;;;;;;;4.38;1.30;;;27.20;52.30;;;;;;6097697;23;88181;-70
2023/07/01 15:32:41;;;;;;;3.00;1.42;;;27.10;53.40;;;;;;6097036;23;87158;-69
2023/07/01 15:35:07;;;;;;;3.83;1.75;;;26.90;53.50;;;;;;6097658;23;87422;-69
2023/07/01 15:37:33;;;;;;;5.70;1.83;;;26.90;55.20;;;;;;6097436;23;87648;-70
2023/07/01 15:39:59;;;;;;;4.07;1.73;;;26.80;55.70;;;;;;6097595;23;87288;-71
2023/07/01 15:42:25;;;;;;;2.35;1.27;;;26.70;55.50;;;;;;6098004;23;87369;-72
2023/07/01 15:44:53;;;;;;;6.85;1.40;;;26.60;54.80;;;;;;6097136;23;87572;-69
2023/07/01 15:47:19;;;;;;;3.33;1.42;;;26.50;56.10;;;;;;6097633;23;88096;-71
2023/07/01 15:49:45;;;;;;;3.65;1.42;;;26.50;56.00;;;;;;6097549;23;87192;-69
2023/07/01 15:52:11;;;;;;;4.80;1.40;;;26.40;56.10;;;;;;6098225;23;87357;-69
2023/07/01 15:54:37;;;;;;;2.22;1.10;;;26.40;56.60;;;;;;6096554;23;88404;-69
2023/07/01 15:57:06;;;;;;;2.42;1.15;;;26.30;56.60;;;;;;6096807;23;88126;-71
2023/07/01 15:59:32;;;;;;;6.63;1.40;;;26.30;56.30;;;;;;6098219;23;87562;-69
2023/07/01 16:02:01;;;;;;;3.67;1.27;;;26.40;55.90;;;;;;6098130;23;87431;-70
2023/07/01 16:04:33;;;;;;;3.15;1.27;;;26.40;55.00;;;;;;6097544;23;87223;-70
2023/07/01 16:06:59;;;;;;;3.03;1.30;;;26.50;56.40;;;;;;6097251;23;87519;-70